Aeroporto :
LOGIN :

Iscrizione | Disclaimer

   EN    FR    IT 

 










Sommario :    VFR   VFR Marginale   IFR   IFR Intensivo   IFR Molto Intensivo
Visibilità : 
Base nubi : 
>= 8 km
>= 3000ft
5 / 8 km
1000 / 3000 ft
1500m / 5 km
500 / 1000 ft
800 / 1500m
200 / 500 ft
< 800m
< 200 ft
Simboli :   Temporali  Nebbia  Neve Forte  Precipitazioni Forti  Vento > 20 kt
SIGMETs :   Varie  Temporali  Ghiacco  Turbolenza  Onda orograficha  Ceneri Vulcaniche






- Altitudine del aeroporto : 781 ft
- Codice IATA : SKP


LWSK - Skopje

ULTIMO METAR :
  • 061200Z 27002KT 7000 RA FEW004 SCT015 OVC033 17/16 Q1016 NOSIG

METARs OBSOLETI :
  • 061130Z 25003KT 4000 +RA SCT004 BKN016 OVC070 17/16 Q1015 NOSIG
  • 061100Z 27003KT 9999 RA SCT005 BKN020 OVC070 18/17 Q1015 NOSIG
  • 061030Z 31003KT 9999 -DZ SCT010 BKN023 OVC070 18/17 Q1015 NOSIG
  • 061000Z 31002KT 5000 -RA FEW003 BKN023 OVC060 18/17 Q1014 NOSIG
  • 060930Z 27002KT 2500 +RA SCT003 BKN013 OVC040 17/17 Q1014 NOSIG

TAF TAF LWSK
Valido dal 06 a 12 ore il 07 a 12 ore UTC


061130Z 0612/0712 31005KT 5000 RA BKN015 OVC050
TEMPO 0612/0615 3000 +RA BKN005 OVC035
TEMPO 0614/0620 VRB20KT 1500 TSRA FEW030CB OVC035



MetMap, La meteo Aeronautica in un colpo d'occhio ! - Copyright ORBIFLY Dicembre 2007 - Disclaimer

ORBIFLY MET'MAP TEAM :

Programmazione e sviluppo : Alexandra Zaïnal
Concezione : Baudouin d'Aumeries
Aiuto per la programmazione : Marc-Olivier Méhu
Supporto tecnico e logistico : Manuel Goepfert
Aiuto per la traduzione : Arnaldo La Scala

Contatto : metmap@orbifly.com




FONTI E CREDITI :

   NOAA